CheckWX is a tool to help pilots better visualize weather data.  It is not intended as a substitute for an official pre-flight weather briefing.

23:26:53 UTC

KHIB METAR
Range Regional Airport
Hibbing, Minnesota, USA
Current

34 mins ago

KHIB 222253Z AUTO VRB04KT 10SM CLR M03/M08 A2990 RMK AO2 SLP151 T10281078
Observed
Nov-22 @ 22:53 UTC
Wind
  • Variable at 4 KTS
Visibility
10 SM
Flight Rules
VFR
Cloud Levels
  • Clear skies
Temperature
-3°C / 27°F
Dewpoint
-8°C / 18°F
Humidity
69%
Altimeter
29.9" Hg
Pressure
1012.52 hPa
Previous

2 hours ago

KHIB 222153Z AUTO 21005KT 10SM CLR M02/M07 A2993 RMK AO2 SLP159 T10171072
Observed
Nov-22 @ 21:53 UTC
Wind
  • 210° at 5 KTS
Visibility
10 SM
Flight Rules
VFR
Cloud Levels
  • Clear skies
Temperature
-2°C / 28°F
Dewpoint
-7°C / 19°F
Humidity
69%
Altimeter
29.93" Hg
Pressure
1013.52 hPa
Previous

3 hours ago

KHIB 222053Z AUTO 21007KT 10SM CLR M02/M07 A2995 RMK AO2 SLP167 60000 T10171067 56028
Observed
Nov-22 @ 20:53 UTC
Wind
  • 210° at 7 KTS
Visibility
10 SM
Flight Rules
VFR
Cloud Levels
  • Clear skies
Temperature
-2°C / 28°F
Dewpoint
-7°C / 19°F
Humidity
69%
Altimeter
29.95" Hg
Pressure
1014.22 hPa